Pagina principale
METAR-TAF:

METAR-TAF

Aeroporti :

San Gallo, Svizzera

latitudine: 47-29-06N, longitudine: 009-33-43E, altezza: 398 m

Osservazione

Il bollettino è stato emesso 20 minuti fa, alle 10:20 UTC
Vento 1 kt da direzioni variabili
Temperature 12°C
Umidità 100%
Pressione 1025 hPa
Visibilità 10 km o più
Nubi sparse ad un'altezza di 2600 ft
Nuvoloso ad un'altezza di 5000 ft

METAR: LSZR 261020Z VRB01KT 9999 SCT026 BKN050 12/12 Q1025 NOSIG RMK F

Ora: 12:40 (10:40 UTC)

Previsione

Il bollettino è stato emesso 2 ore e 15 minuti fa, alle 08:25 UTC
Previsione valida dal 26 alle 09 UTC al 26 alle 18 UTC
Vento 2 kt da direzioni variabili
Visibilità 10 km o più
Nubi sparse ad un'altezza di 5000 ft
Nuvoloso ad un'altezza di 7000 ft
Evoluzione graduale
dal 26 alle 15 UTC al 26 alle 18 UTC
Visibilità 10 km o più
nessuna nube inferiore a 1500 m e nessun cumulonembo

TAF: LSZR 260825Z 2609/2618 VRB02KT 9999 SCT050 BKN070 BECMG 2615/2618 CAVOK

Osservazioni e previsioni meteorologiche di più di 4000 aeroporti (messaggi METAR e TAF).

Le stazioni disponibili sono rappresentate dai dischi gialli e rossi sulla carta.

Puntare il mouse per vedere il nome della stazione.

Clicca sopra per visualizzare le osservazioni e previsioni meteorologiche.

Per cambiare la mappa : fare clic sui pulsanti verdi con una croce nera per ingrandire, il pulsante verde con un trattino per diminuire, o sulla freccia verde per le mappe adiacenti.


METAR-TAF: